createdAt,value
2022-12-03T00:01:14.540Z,37.63
2022-12-03T00:04:17.533Z,36.90
2022-12-03T00:07:20.035Z,38.47
2022-12-03T00:10:24.276Z,33.73
2022-12-03T00:13:26.841Z,34.33
2022-12-03T00:16:29.935Z,37.75
2022-12-03T00:19:32.549Z,34.83
2022-12-03T00:22:35.530Z,37.83
2022-12-03T00:25:38.005Z,35.33
2022-12-03T00:28:41.173Z,38.42
2022-12-03T00:31:45.621Z,25.35
2022-12-03T00:34:49.584Z,36.63
2022-12-03T00:37:52.157Z,40.43
2022-12-03T00:40:55.014Z,37.70
2022-12-03T00:43:57.720Z,36.90
2022-12-03T00:47:00.742Z,39.70
2022-12-03T00:50:05.196Z,35.40
2022-12-03T00:53:08.164Z,34.73
2022-12-03T00:56:10.746Z,38.20
2022-12-03T00:59:15.935Z,38.13
2022-12-03T01:02:18.658Z,33.20
2022-12-03T01:05:21.634Z,35.60
2022-12-03T01:08:24.366Z,35.53
2022-12-03T01:11:39.234Z,36.20
2022-12-03T01:14:41.893Z,33.45
2022-12-03T01:17:46.033Z,34.30
2022-12-03T01:20:48.657Z,37.58
2022-12-03T01:23:51.501Z,36.97
2022-12-03T01:26:55.998Z,34.10
2022-12-03T01:30:00.107Z,37.15
2022-12-03T01:33:02.751Z,36.38
2022-12-03T01:36:06.040Z,35.60
2022-12-03T01:39:09.739Z,38.50
2022-12-03T01:42:17.477Z,42.50
2022-12-03T01:45:24.147Z,39.45
2022-12-03T01:48:28.292Z,37.63
2022-12-03T01:51:31.226Z,40.53
2022-12-03T01:54:41.298Z,33.70
2022-12-03T01:57:50.499Z,36.33
2022-12-03T02:00:53.590Z,36.25
2022-12-03T02:03:59.093Z,39.08
2022-12-03T02:07:32.607Z,39.10
2022-12-03T02:10:36.402Z,36.00
2022-12-03T02:13:39.301Z,32.43
2022-12-03T02:16:42.938Z,40.90
2022-12-03T02:19:46.783Z,35.80
2022-12-03T02:23:02.647Z,41.50
2022-12-03T02:26:05.679Z,38.20
2022-12-03T02:29:08.367Z,37.33
2022-12-03T02:32:11.276Z,37.47
2022-12-03T02:35:16.400Z,36.05
2022-12-03T02:38:23.218Z,37.70
2022-12-03T02:41:44.656Z,42.47
2022-12-03T02:44:47.643Z,35.37
2022-12-03T02:47:55.565Z,33.70
2022-12-03T02:51:02.649Z,36.72
2022-12-03T02:54:05.571Z,38.95
2022-12-03T02:57:08.531Z,40.40
2022-12-03T03:00:12.121Z,40.67
2022-12-03T03:03:18.320Z,36.45
2022-12-03T03:06:21.870Z,37.47
2022-12-03T03:09:24.825Z,38.40
2022-12-03T03:12:27.430Z,37.37
2022-12-03T03:15:30.360Z,40.00
2022-12-03T03:18:34.253Z,37.55
2022-12-03T03:21:37.111Z,36.38
2022-12-03T03:24:39.893Z,33.15
2022-12-03T03:27:43.560Z,34.50
2022-12-03T03:30:48.286Z,37.03
2022-12-03T03:33:51.863Z,34.22
2022-12-03T03:36:54.526Z,35.42
2022-12-03T03:39:58.171Z,35.95
2022-12-03T03:43:01.348Z,35.20
2022-12-03T03:46:06.781Z,38.43
2022-12-03T03:49:10.699Z,35.10
2022-12-03T03:52:14.192Z,35.45
2022-12-03T03:55:19.165Z,35.65
2022-12-03T03:58:22.426Z,34.83
2022-12-03T04:01:25.391Z,36.37
2022-12-03T04:04:34.634Z,38.92
2022-12-03T04:07:37.369Z,33.33
2022-12-03T04:10:58.803Z,36.08
2022-12-03T04:14:02.870Z,31.40
2022-12-03T04:17:05.693Z,35.30
2022-12-03T04:20:08.618Z,38.65
2022-12-03T04:23:11.639Z,35.47
2022-12-03T04:26:33.167Z,34.83
2022-12-03T04:29:36.065Z,37.57
2022-12-03T04:32:57.062Z,34.57
2022-12-03T04:36:00.014Z,21.70
2022-12-03T04:39:02.720Z,24.30
2022-12-03T04:42:06.516Z,36.75
2022-12-03T04:45:09.551Z,32.20
2022-12-03T04:48:12.564Z,33.80
2022-12-03T04:51:15.126Z,27.17
2022-12-03T04:54:18.045Z,31.62
2022-12-03T04:57:20.586Z,34.63
2022-12-03T05:00:23.523Z,37.10
2022-12-03T05:03:26.057Z,39.85
2022-12-03T05:06:30.988Z,42.10
2022-12-03T05:09:33.689Z,38.20
2022-12-03T05:12:37.559Z,45.58
2022-12-03T05:15:40.113Z,40.70
2022-12-03T05:18:46.042Z,43.23
2022-12-03T05:21:48.750Z,41.55
2022-12-03T05:24:51.854Z,38.15
2022-12-03T05:27:54.801Z,42.33
2022-12-03T05:30:57.759Z,31.60
2022-12-03T05:34:00.351Z,40.92
2022-12-03T05:37:03.482Z,35.88
2022-12-03T05:40:06.883Z,25.50
2022-12-03T05:43:09.765Z,43.03
2022-12-03T05:46:12.365Z,46.00
2022-12-03T05:49:15.237Z,40.65
2022-12-03T05:52:18.502Z,40.72
2022-12-03T05:55:21.865Z,40.83
2022-12-03T05:58:24.367Z,49.83
2022-12-03T06:01:27.255Z,37.20
2022-12-03T06:04:30.138Z,45.30
2022-12-03T06:07:32.718Z,52.40
2022-12-03T06:10:35.696Z,46.90
2022-12-03T06:13:38.268Z,44.30
2022-12-03T06:16:41.216Z,50.47
2022-12-03T06:19:43.953Z,46.88
2022-12-03T06:22:48.490Z,44.42
2022-12-03T06:25:51.241Z,47.30
2022-12-03T06:28:54.195Z,42.95
2022-12-03T06:31:56.783Z,43.73
2022-12-03T06:35:01.974Z,42.80
2022-12-03T06:38:04.615Z,43.50
2022-12-03T06:41:07.763Z,42.13
2022-12-03T06:44:11.416Z,49.30
2022-12-03T06:47:14.450Z,49.80
2022-12-03T06:50:17.131Z,42.17
2022-12-03T06:53:20.068Z,47.47
2022-12-03T06:56:22.815Z,45.65
2022-12-03T06:59:25.988Z,50.08
2022-12-03T07:02:28.677Z,43.87
2022-12-03T07:05:31.963Z,47.90
2022-12-03T07:08:34.798Z,42.38
2022-12-03T07:11:41.161Z,44.67
2022-12-03T07:14:43.750Z,46.33
2022-12-03T07:17:46.681Z,44.60
2022-12-03T07:20:52.028Z,45.47
2022-12-03T07:23:56.661Z,49.97
2022-12-03T07:27:00.626Z,43.83
2022-12-03T07:30:06.844Z,50.80
2022-12-03T07:33:09.621Z,35.97
2022-12-03T07:36:12.512Z,24.87
2022-12-03T07:39:15.593Z,14.68
2022-12-03T07:42:18.519Z,34.38
2022-12-03T07:45:22.446Z,30.42
2022-12-03T07:48:26.365Z,31.73
2022-12-03T07:51:32.190Z,35.33
2022-12-03T07:54:36.516Z,26.80
2022-12-03T07:57:39.775Z,31.65
2022-12-03T08:00:42.656Z,24.33
2022-12-03T08:03:45.663Z,31.00
2022-12-03T08:06:49.082Z,39.58
2022-12-03T08:09:52.061Z,32.33
2022-12-03T08:12:57.226Z,28.02
2022-12-03T08:16:11.851Z,30.62
2022-12-03T08:19:17.538Z,21.20
2022-12-03T08:22:20.666Z,26.90
2022-12-03T08:25:26.296Z,29.25
2022-12-03T08:28:29.334Z,28.12
2022-12-03T08:31:33.785Z,21.27
2022-12-03T08:34:44.795Z,40.13
2022-12-03T08:37:48.522Z,23.73
2022-12-03T08:40:53.029Z,27.00
2022-12-03T08:43:55.661Z,33.83
2022-12-03T08:47:10.462Z,26.83
2022-12-03T08:50:30.902Z,34.73
2022-12-03T08:53:37.824Z,29.73
2022-12-03T08:56:42.004Z,31.50
2022-12-03T08:59:45.826Z,38.25
2022-12-03T09:02:54.657Z,40.75
2022-12-03T09:05:57.733Z,48.27
2022-12-03T09:09:06.344Z,39.00
2022-12-03T09:12:09.832Z,43.17
2022-12-03T09:15:12.456Z,37.60
2022-12-03T09:18:15.339Z,39.00
2022-12-03T09:21:17.933Z,39.07
2022-12-03T09:24:21.232Z,36.80
2022-12-03T09:27:24.011Z,36.17
2022-12-03T09:30:27.029Z,37.30
2022-12-03T09:33:31.282Z,38.22
2022-12-03T09:36:34.433Z,21.93
2022-12-03T09:39:37.289Z,21.63
2022-12-03T09:42:40.531Z,41.80
2022-12-03T09:45:45.880Z,38.92
2022-12-03T09:48:48.960Z,45.28
2022-12-03T09:51:52.187Z,12.60
2022-12-03T09:54:55.399Z,44.20
2022-12-03T09:57:58.589Z,52.58
2022-12-03T10:01:01.590Z,53.35
2022-12-03T10:04:04.831Z,49.60
2022-12-03T10:07:09.693Z,35.10
2022-12-03T10:10:24.815Z,43.50
2022-12-03T10:13:30.931Z,38.72
2022-12-03T10:16:36.180Z,39.30
2022-12-03T10:19:39.803Z,50.55
2022-12-03T10:22:42.786Z,28.40
2022-12-03T10:25:54.317Z,47.73
2022-12-03T10:28:57.224Z,34.45
2022-12-03T10:32:01.641Z,44.47
2022-12-03T10:35:21.605Z,41.92
2022-12-03T10:38:24.249Z,40.53
2022-12-03T10:41:28.923Z,41.57
2022-12-03T10:44:34.142Z,37.60
2022-12-03T10:47:37.283Z,42.22
2022-12-03T10:51:03.436Z,43.55
2022-12-03T10:54:22.877Z,38.50
2022-12-03T10:57:25.757Z,32.13
2022-12-03T11:00:28.753Z,39.47
2022-12-03T11:03:35.255Z,38.83
2022-12-03T11:06:38.096Z,43.80
2022-12-03T11:09:44.129Z,42.40
2022-12-03T11:13:25.595Z,41.13
2022-12-03T11:16:40.276Z,40.70
2022-12-03T11:19:46.579Z,43.05
2022-12-03T11:22:53.797Z,42.30
2022-12-03T11:25:57.774Z,44.70
2022-12-03T11:29:00.519Z,36.73
2022-12-03T11:32:03.521Z,41.90
2022-12-03T11:35:19.496Z,41.17
2022-12-03T11:38:37.828Z,39.35
2022-12-03T11:41:40.507Z,42.50
2022-12-03T11:44:43.654Z,43.47
2022-12-03T11:47:59.838Z,43.20
2022-12-03T11:51:03.113Z,40.45
2022-12-03T11:54:05.786Z,36.70
2022-12-03T11:57:37.468Z,38.33
2022-12-03T12:00:51.969Z,33.70
2022-12-03T12:03:54.907Z,35.33
2022-12-03T12:06:57.600Z,31.60
2022-12-03T12:10:00.553Z,37.20
2022-12-03T12:13:03.386Z,24.37
2022-12-03T12:16:08.067Z,34.27
2022-12-03T12:19:29.672Z,33.15
2022-12-03T12:22:32.729Z,34.28
2022-12-03T12:25:40.870Z,34.22
2022-12-03T12:28:46.999Z,33.27
2022-12-03T12:31:53.915Z,32.10
2022-12-03T12:35:23.324Z,32.65
2022-12-03T12:38:28.287Z,34.47
2022-12-03T12:41:31.199Z,39.38
2022-12-03T12:44:33.732Z,34.53
2022-12-03T12:47:36.899Z,31.53
2022-12-03T12:50:43.897Z,32.88
2022-12-03T12:53:48.624Z,37.30
2022-12-03T12:56:51.361Z,32.88
2022-12-03T12:59:54.519Z,35.60
2022-12-03T13:03:03.304Z,36.50
2022-12-03T13:06:06.757Z,33.15
2022-12-03T13:09:15.232Z,37.53
2022-12-03T13:12:22.268Z,43.65
2022-12-03T13:15:52.241Z,42.33
2022-12-03T13:18:57.277Z,45.80
2022-12-03T13:22:15.799Z,46.33
2022-12-03T13:26:10.736Z,49.78
2022-12-03T13:29:19.755Z,48.20
2022-12-03T13:32:31.067Z,45.20
2022-12-03T13:35:36.443Z,45.23
2022-12-03T13:38:39.561Z,44.17
2022-12-03T13:42:01.815Z,37.22
2022-12-03T13:45:16.613Z,39.03
2022-12-03T13:48:23.335Z,39.60
2022-12-03T13:51:29.964Z,31.07
2022-12-03T13:54:32.751Z,38.15
2022-12-03T13:57:35.771Z,40.72
2022-12-03T14:00:38.513Z,42.25
2022-12-03T14:03:41.557Z,46.87
2022-12-03T14:06:44.123Z,47.37
2022-12-03T14:09:47.123Z,43.20
2022-12-03T14:12:51.017Z,43.47
2022-12-03T14:15:54.176Z,63.87
2022-12-03T14:18:56.814Z,31.00
2022-12-03T14:22:00.421Z,32.07
2022-12-03T14:25:03.051Z,38.55
2022-12-03T14:28:08.845Z,46.60
2022-12-03T14:31:11.586Z,42.00
2022-12-03T14:34:14.705Z,40.23
2022-12-03T14:37:17.839Z,35.10
2022-12-03T14:40:22.602Z,40.00
2022-12-03T14:43:25.413Z,34.85
2022-12-03T14:46:28.394Z,40.08
2022-12-03T14:49:31.289Z,26.13
2022-12-03T14:52:35.019Z,30.90
2022-12-03T14:55:38.422Z,38.42
2022-12-03T14:58:41.292Z,34.83
2022-12-03T15:01:44.222Z,34.40
2022-12-03T15:04:47.144Z,39.20
2022-12-03T15:07:49.734Z,36.37
2022-12-03T15:10:52.702Z,36.00
2022-12-03T15:13:55.191Z,33.30
2022-12-03T15:16:58.190Z,38.42
2022-12-03T15:20:00.881Z,35.13
2022-12-03T15:23:03.774Z,41.73
2022-12-03T15:26:06.614Z,38.17
2022-12-03T15:29:09.538Z,68.68
2022-12-03T15:32:14.530Z,52.08
2022-12-03T15:35:18.781Z,51.83
2022-12-03T15:38:21.403Z,85.00
2022-12-03T15:41:29.839Z,58.53
2022-12-03T15:44:32.805Z,58.72
2022-12-03T15:47:38.116Z,107.57
2022-12-03T15:50:41.435Z,54.77
2022-12-03T15:53:44.519Z,75.50
2022-12-03T15:56:47.189Z,97.25
2022-12-03T15:59:50.415Z,82.72
2022-12-03T16:02:54.759Z,35.33
2022-12-03T16:05:58.194Z,30.30
2022-12-03T16:09:00.812Z,28.33
2022-12-03T16:12:03.857Z,28.70
2022-12-03T16:15:06.849Z,32.95
2022-12-03T16:18:10.154Z,24.77
2022-12-03T16:21:12.757Z,16.50
2022-12-03T16:24:16.869Z,21.37
2022-12-03T16:27:25.479Z,17.70
2022-12-03T16:30:30.329Z,34.55
2022-12-03T16:33:32.951Z,47.10
2022-12-03T16:36:38.368Z,20.07
2022-12-03T16:39:42.509Z,23.30
2022-12-03T16:42:46.195Z,22.50
2022-12-03T16:46:02.988Z,21.45
2022-12-03T16:49:07.268Z,22.98
2022-12-03T16:52:10.720Z,21.00
2022-12-03T16:55:14.440Z,16.43
2022-12-03T16:58:21.342Z,21.92
2022-12-03T17:01:24.808Z,20.98
2022-12-03T17:04:30.093Z,21.42
2022-12-03T17:07:33.153Z,21.27
2022-12-03T17:10:36.001Z,32.90
2022-12-03T17:13:38.941Z,24.98
2022-12-03T17:16:41.442Z,20.70
2022-12-03T17:19:44.484Z,21.67
2022-12-03T17:22:47.942Z,23.07
2022-12-03T17:25:51.225Z,18.33
2022-12-03T17:28:53.923Z,27.90
2022-12-03T17:31:57.206Z,18.75
2022-12-03T17:35:00.347Z,15.85
2022-12-03T17:38:03.579Z,22.40
2022-12-03T17:41:07.580Z,18.27
2022-12-03T17:44:13.900Z,26.27
2022-12-03T17:47:19.316Z,20.42
2022-12-03T17:50:22.339Z,15.20
2022-12-03T17:53:25.751Z,15.87
2022-12-03T17:56:28.783Z,17.87
2022-12-03T17:59:31.666Z,20.02
2022-12-03T18:02:34.525Z,8.77
2022-12-03T18:05:37.561Z,22.60
2022-12-03T18:08:40.099Z,15.03
2022-12-03T18:11:43.404Z,26.97
2022-12-03T18:14:46.277Z,21.62
2022-12-03T18:17:49.356Z,16.17
2022-12-03T18:20:53.559Z,16.15
2022-12-03T18:24:00.395Z,27.10
2022-12-03T18:27:03.242Z,24.33
2022-12-03T18:30:07.551Z,17.02
2022-12-03T18:33:10.244Z,17.85
2022-12-03T18:36:22.402Z,15.70
2022-12-03T18:39:34.917Z,18.93
2022-12-03T18:42:38.228Z,17.40
2022-12-03T18:45:41.114Z,18.48
2022-12-03T18:48:48.748Z,19.10
2022-12-03T18:51:57.329Z,19.50
2022-12-03T18:55:02.882Z,23.23
2022-12-03T18:58:05.597Z,20.67
2022-12-03T19:01:16.577Z,23.73
2022-12-03T19:04:19.881Z,26.25
2022-12-03T19:07:23.377Z,25.95
2022-12-03T19:10:26.597Z,23.50
2022-12-03T19:13:30.983Z,23.93
2022-12-03T19:16:36.289Z,33.97
2022-12-03T19:19:39.776Z,27.67
2022-12-03T19:22:43.362Z,32.83
2022-12-03T19:26:01.255Z,34.37
2022-12-03T19:29:04.828Z,23.13
2022-12-03T19:32:11.229Z,34.35
2022-12-03T19:35:13.831Z,53.70
2022-12-03T19:38:18.417Z,42.70
2022-12-03T19:41:21.508Z,53.90
2022-12-03T19:44:24.732Z,35.77
2022-12-03T19:47:27.906Z,27.83
2022-12-03T19:50:31.226Z,22.95
2022-12-03T19:53:37.318Z,29.00
2022-12-03T19:56:40.820Z,24.47
2022-12-03T19:59:43.807Z,21.53
2022-12-03T20:02:49.421Z,27.70
2022-12-03T20:05:52.909Z,21.70
2022-12-03T20:08:59.721Z,12.52
2022-12-03T20:12:03.222Z,14.13
2022-12-03T20:15:06.637Z,32.40
2022-12-03T20:18:11.024Z,26.37
2022-12-03T20:21:16.986Z,30.70
2022-12-03T20:24:20.449Z,30.90
2022-12-03T20:27:24.961Z,35.77
2022-12-03T20:30:28.336Z,34.53
2022-12-03T20:33:31.367Z,33.90
2022-12-03T20:36:34.945Z,28.05
2022-12-03T20:39:39.467Z,32.28
2022-12-03T20:42:48.833Z,36.90
2022-12-03T20:45:52.199Z,32.37
2022-12-03T20:48:56.147Z,31.92
2022-12-03T20:52:02.857Z,31.77
2022-12-03T20:55:09.284Z,33.78
2022-12-03T20:58:12.538Z,26.97
2022-12-03T21:01:21.146Z,15.73
2022-12-03T21:04:25.723Z,23.90
2022-12-03T21:07:29.341Z,29.27
2022-12-03T21:10:45.189Z,31.83
2022-12-03T21:13:49.931Z,56.00
2022-12-03T21:17:11.971Z,68.03
2022-12-03T21:20:20.942Z,59.10
2022-12-03T21:23:24.678Z,50.85
2022-12-03T21:26:27.902Z,37.50
2022-12-03T21:29:30.785Z,51.07
2022-12-03T21:32:34.483Z,42.97
2022-12-03T21:35:37.967Z,93.43
2022-12-03T21:38:42.648Z,42.40
2022-12-03T21:42:25.950Z,26.12
2022-12-03T21:45:11.584Z,31.97
2022-12-03T21:48:19.237Z,29.20
2022-12-03T21:51:22.730Z,38.17
2022-12-03T21:54:25.785Z,26.90
2022-12-03T21:57:28.945Z,34.38
2022-12-03T22:00:31.969Z,37.23
2022-12-03T22:03:34.789Z,40.63
2022-12-03T22:06:37.356Z,41.60
2022-12-03T22:09:40.242Z,41.97
2022-12-03T22:12:43.814Z,37.38
2022-12-03T22:15:46.797Z,37.97
2022-12-03T22:18:49.948Z,40.37
2022-12-03T22:21:53.832Z,43.70
2022-12-03T22:24:57.445Z,36.05
2022-12-03T22:28:00.294Z,39.30
2022-12-03T22:31:10.194Z,41.37
2022-12-03T22:34:13.386Z,39.63
2022-12-03T22:37:17.071Z,39.63
2022-12-03T22:40:19.861Z,41.05
2022-12-03T22:43:22.708Z,40.17
2022-12-03T22:46:25.634Z,42.07
2022-12-03T22:49:28.461Z,36.97
2022-12-03T22:52:31.376Z,32.83
2022-12-03T22:55:33.997Z,35.95
2022-12-03T22:58:38.862Z,37.72
2022-12-03T23:01:42.126Z,36.57
2022-12-03T23:04:44.996Z,33.80
2022-12-03T23:07:48.783Z,40.28
2022-12-03T23:10:52.960Z,40.25
2022-12-03T23:13:55.910Z,40.63
2022-12-03T23:16:58.750Z,38.07
2022-12-03T23:20:01.829Z,40.87
2022-12-03T23:23:04.721Z,41.50
2022-12-03T23:26:10.807Z,33.15
2022-12-03T23:29:13.912Z,41.33
2022-12-03T23:32:16.555Z,39.57
2022-12-03T23:35:19.467Z,41.97
2022-12-03T23:38:22.215Z,37.30
2022-12-03T23:41:26.139Z,42.83
2022-12-03T23:44:28.749Z,45.03
2022-12-03T23:47:32.709Z,45.47
2022-12-03T23:50:38.720Z,48.37
2022-12-03T23:53:41.666Z,39.97
2022-12-03T23:56:44.381Z,43.00
2022-12-03T23:59:47.235Z,42.00
